Fowlkes, Tennessee
Current Conditions -  °F | °C
As of 12:15 PM on Friday 31 Oct 2014 (Local Time) from KDYR Reporting Station
Overcast Overcast  
Wind Chill: 54°   Ceiling: 3400
Heat Index: 54°   Visibility: 10mi
Dew Point: 36°   Wind: 18mph
Humidity: 51%   Direction: 340°NNW
Pressure: 30.15"   Gusts: 30mph
Location:  35.97°N, 89.39°W
Report Text: KDYR 311715Z 34016G26KT 10SM OVC034 12/02 A3015 RMK AO1
Loading
Personal Weather Stations






























Interactive Weather Map
Tropical Storm Tracking
New forecast layout! Learn more

10-Day Weather Forecast

Advertisements
Track Severe Weather on mobile